Time;durP1;ratioP1;P1;durP2;ratioP2;P2;SDS_P1;SDS_P2;PMS_P1;PMS_P2;Temp;Humidity;BMP_temperature;BMP_pressure;BME280_temperature;BME280_humidity;BME280_pressure;Samples;Min_cycle;Max_cycle;Signal;HPM_P1;HPM_P2
2023/02/23 00:02:06;;;;;;;27.33;17.67;;;10.20;86.40;;;13.47;51.89;97273.88;5072069;28;20059;-47
2023/02/23 00:04:35;;;;;;;28.67;17.20;;;10.30;86.30;;;13.48;51.85;97272.06;5071559;28;20045;-48
2023/02/23 00:07:05;;;;;;;28.13;18.73;;;10.30;86.50;;;13.50;51.77;97273.50;5071628;28;20044;-48
2023/02/23 00:09:35;;;;;;;27.90;19.10;;;10.30;86.20;;;13.48;51.66;97267.53;5062281;28;20044;-45
2023/02/23 00:12:08;;;;;;;26.13;18.33;;;10.20;86.40;;;13.50;51.90;97270.00;5071751;28;20040;-49
2023/02/23 00:14:36;;;;;;;27.73;18.50;;;10.30;86.60;;;13.52;51.86;97265.31;5063394;28;20047;-50
2023/02/23 00:17:12;;;;;;;29.67;18.67;;;10.30;86.50;;;13.52;51.90;97266.13;5070764;28;20033;-47
2023/02/23 00:19:42;;;;;;;29.67;18.87;;;10.30;86.40;;;13.52;52.11;97263.44;5064526;28;20037;-52
2023/02/23 00:22:11;;;;;;;28.40;17.40;;;10.30;86.90;;;13.48;52.08;97267.53;5053848;28;20040;-48
2023/02/23 00:24:41;;;;;;;29.80;19.43;;;10.30;87.40;;;13.48;52.21;97261.34;5070422;28;20055;-48
2023/02/23 00:27:11;;;;;;;26.77;17.57;;;10.30;87.80;;;13.45;52.41;97262.53;5071524;28;20060;-51
2023/02/23 00:29:39;;;;;;;27.17;18.43;;;10.20;88.40;;;13.43;52.54;97264.56;5071250;28;20047;-46
2023/02/23 00:32:07;;;;;;;27.13;18.80;;;10.20;89.00;;;13.42;52.76;97262.94;5071580;28;20041;-46
2023/02/23 00:34:36;;;;;;;25.70;16.53;;;10.20;90.20;;;13.38;52.91;97264.34;5045154;28;20041;-46
2023/02/23 00:37:03;;;;;;;31.63;18.83;;;10.20;91.30;;;13.34;53.16;97255.84;5071192;28;20029;-49
2023/02/23 00:39:31;;;;;;;32.33;18.57;;;10.10;92.90;;;13.34;53.09;97261.19;5071156;28;20040;-47
2023/02/23 00:42:02;;;;;;;28.30;18.33;;;10.10;93.20;;;13.33;53.24;97256.84;5061255;28;20103;-48
2023/02/23 00:44:32;;;;;;;29.53;17.93;;;10.10;93.40;;;13.32;53.22;97251.72;5060495;28;20052;-47
2023/02/23 00:47:01;;;;;;;25.43;17.23;;;10.00;93.50;;;13.30;53.29;97259.06;5052951;28;20055;-48
2023/02/23 00:49:28;;;;;;;31.77;19.10;;;10.00;94.50;;;13.31;53.43;97258.06;5071024;28;20051;-51
2023/02/23 00:51:56;;;;;;;30.03;17.83;;;10.10;94.90;;;13.34;53.38;97258.53;5052194;28;20393;-47
2023/02/23 00:54:24;;;;;;;25.93;18.00;;;10.10;94.90;;;13.36;53.24;97253.00;5052653;28;20043;-47
2023/02/23 00:56:52;;;;;;;26.73;18.37;;;10.10;95.30;;;13.34;53.46;97255.03;5052691;28;20517;-47
2023/02/23 00:59:19;;;;;;;27.20;17.87;;;10.10;96.00;;;13.35;53.50;97248.66;5061295;28;20067;-47
2023/02/23 01:01:47;;;;;;;28.83;18.73;;;10.20;96.70;;;13.35;53.54;97246.81;5053192;28;20043;-50
2023/02/23 01:04:15;;;;;;;27.40;18.93;;;10.10;96.80;;;13.33;53.65;97253.38;5070349;28;20063;-47
2023/02/23 01:06:44;;;;;;;32.47;18.47;;;10.10;97.50;;;13.27;53.77;97248.75;5071433;28;20051;-48
2023/02/23 01:09:26;;;;;;;29.23;19.30;;;10.00;98.40;;;13.27;53.61;97257.59;5070787;28;20514;-50
2023/02/23 01:11:55;;;;;;;28.67;18.30;;;10.00;98.90;;;13.32;53.24;97254.41;5070826;28;20040;-50
2023/02/23 01:14:23;;;;;;;25.50;17.67;;;10.10;98.30;;;13.28;53.49;97258.41;5051478;28;20049;-50
2023/02/23 01:16:51;;;;;;;31.97;18.70;;;10.00;97.80;;;13.23;53.51;97263.50;5050560;28;20041;-51
2023/02/23 01:19:21;;;;;;;27.80;17.60;;;10.00;98.10;;;13.19;53.63;97247.00;5052576;28;20424;-49
2023/02/23 01:21:49;;;;;;;28.07;18.67;;;9.90;98.60;;;13.18;53.38;97248.84;5052912;28;20047;-50
2023/02/23 01:24:17;;;;;;;28.40;18.97;;;9.90;98.50;;;13.18;53.59;97256.88;5073916;28;20040;-49
2023/02/23 01:26:45;;;;;;;25.63;18.70;;;9.90;98.90;;;13.17;53.45;97249.84;5075028;28;20409;-47
2023/02/23 01:29:16;;;;;;;28.30;18.43;;;9.90;99.10;;;13.19;53.57;97247.81;5039808;28;20056;-47
2023/02/23 01:31:47;;;;;;;29.33;18.93;;;9.90;99.20;;;13.17;53.60;97249.03;5056329;28;20044;-46
2023/02/23 01:34:20;;;;;;;30.70;18.00;;;9.80;99.30;;;13.16;53.74;97247.38;5074300;28;20055;-48
2023/02/23 01:36:48;;;;;;;26.20;17.00;;;9.80;99.90;;;13.13;53.74;97248.56;5074150;28;20047;-50
2023/02/23 01:39:19;;;;;;;29.07;17.90;;;9.80;99.90;;;13.12;53.67;97248.75;5064629;28;20060;-48
2023/02/23 01:41:47;;;;;;;26.20;16.67;;;9.80;99.90;;;13.11;53.74;97247.13;5074607;28;20041;-47
2023/02/23 01:44:14;;;;;;;21.47;15.30;;;9.80;99.90;;;13.10;53.80;97245.44;5055472;28;20427;-48
2023/02/23 01:46:45;;;;;;;25.90;15.43;;;9.80;99.90;;;13.11;53.60;97247.94;5048137;28;20040;-49
2023/02/23 01:49:18;;;;;;;22.17;15.07;;;9.80;99.90;;;13.12;53.59;97241.56;5074521;28;20071;-50
2023/02/23 01:51:54;;;;;;;22.95;14.43;;;9.80;99.90;;;13.15;53.48;97243.88;5049007;28;20041;-51
2023/02/23 01:54:27;;;;;;;25.27;16.77;;;9.80;99.90;;;13.15;53.17;97238.53;5055910;28;20411;-51
2023/02/23 01:57:00;;;;;;;27.25;16.83;;;9.90;99.90;;;13.15;53.24;97235.03;5040257;28;20048;-47
2023/02/23 01:59:40;;;;;;;23.50;16.53;;;9.90;99.90;;;13.14;53.09;97231.53;5039813;28;20508;-49
2023/02/23 02:02:09;;;;;;;23.37;16.30;;;9.80;99.80;;;13.14;53.26;97233.38;5056925;28;20045;-51
2023/02/23 02:04:43;;;;;;;22.93;16.50;;;9.90;99.40;;;13.14;53.22;97236.03;5038646;28;20048;-47
2023/02/23 02:07:19;;;;;;;25.90;16.53;;;9.80;99.20;;;13.15;53.25;97232.38;5057123;28;20060;-48
2023/02/23 02:10:55;;;;;;;25.53;14.90;;;9.90;99.50;;;13.15;53.45;97233.19;5066888;28;20411;-47
2023/02/23 02:12:55;;;;;;;24.60;16.50;;;9.80;99.70;;;13.22;53.23;97227.09;5045231;28;20052;-49
2023/02/23 02:15:30;;;;;;;23.80;16.23;;;9.90;99.70;;;13.22;53.41;97233.25;5039804;28;20052;-48
2023/02/23 02:18:09;;;;;;;;;;;9.90;99.50;;;13.25;52.82;97222.19;5039258;28;20040;-49
2023/02/23 02:21:23;;;;;;;29.40;16.87;;;9.90;99.90;;;13.20;53.11;97232.59;5039464;28;19940;-49
2023/02/23 02:24:20;;;;;;;24.23;15.80;;;9.80;99.90;;;13.18;53.22;97232.81;5038110;28;20060;-48
2023/02/23 02:27:25;;;;;;;26.20;19.13;;;9.80;99.90;;;13.14;53.24;97234.22;5053363;28;20485;-49
2023/02/23 02:30:18;;;;;;;23.65;16.98;;;9.80;99.90;;;13.16;53.21;97229.50;5051852;28;20519;-46
2023/02/23 02:33:05;;;;;;;24.37;16.20;;;9.90;99.90;;;13.19;53.10;97228.28;5032768;28;20044;-50
2023/02/23 02:36:06;;;;;;;23.43;15.90;;;9.90;99.60;;;13.17;52.99;97220.47;5054759;28;20048;-49
2023/02/23 02:38:52;;;;;;;23.13;16.07;;;10.00;98.60;;;13.16;53.19;97216.16;5058519;28;20051;-49
2023/02/23 02:41:41;;;;;;;21.50;15.07;;;10.00;98.10;;;13.14;53.17;97223.53;5055062;28;20053;-45
2023/02/23 02:44:17;;;;;;;22.47;15.83;;;10.00;97.80;;;13.11;53.19;97221.22;5056718;28;20071;-49
2023/02/23 02:46:52;;;;;;;26.10;17.03;;;9.90;98.40;;;13.12;53.23;97219.38;5047674;28;20083;-47
2023/02/23 02:49:31;;;;;;;22.07;15.47;;;9.80;98.70;;;13.08;53.35;97216.22;5038629;28;20048;-48
2023/02/23 02:52:17;;;;;;;24.60;16.63;;;9.80;99.00;;;13.08;53.23;97210.06;5056040;28;20416;-48
2023/02/23 02:54:59;;;;;;;26.87;16.67;;;9.80;99.30;;;13.07;53.46;97217.25;5046812;28;20052;-46
2023/02/23 02:57:31;;;;;;;30.97;19.03;;;9.90;99.20;;;13.10;53.41;97214.19;5055741;28;20043;-50
2023/02/23 04:19:56;;;;;;;28.47;18.30;;;9.80;99.90;;;13.04;54.12;97224.81;5054020;28;20855;-46
2023/02/23 04:22:25;;;;;;;26.03;18.50;;;9.80;99.90;;;13.00;54.12;97230.53;5061543;28;20048;-46
2023/02/23 04:24:52;;;;;;;27.93;18.93;;;9.80;99.90;;;13.02;54.28;97225.00;5053504;28;20040;-51
2023/02/23 04:27:20;;;;;;;31.40;18.77;;;9.70;99.90;;;13.04;54.50;97222.16;5071515;28;20115;-49
2023/02/23 04:29:47;;;;;;;31.37;20.23;;;9.80;99.90;;;13.05;54.26;97221.97;5071311;28;20033;-49
2023/02/23 04:32:18;;;;;;;31.17;20.37;;;9.80;99.90;;;13.04;54.64;97224.81;5071193;28;20055;-50
2023/02/23 04:34:46;;;;;;;30.30;18.73;;;9.80;99.90;;;13.06;54.59;97233.47;5071344;28;20107;-48
2023/02/23 04:37:14;;;;;;;30.73;17.90;;;9.80;99.90;;;13.02;54.66;97222.31;5071112;28;20051;-47
2023/02/23 04:39:47;;;;;;;29.10;18.80;;;9.80;99.90;;;13.02;54.70;97226.84;5071055;28;20044;-48
2023/02/23 04:42:16;;;;;;;26.03;17.63;;;9.80;99.90;;;13.00;54.79;97224.38;5071343;28;20041;-46
2023/02/23 04:44:44;;;;;;;27.40;17.10;;;9.70;99.90;;;13.01;54.76;97228.72;5070630;28;20044;-47
2023/02/23 04:47:14;;;;;;;23.70;16.97;;;9.80;99.90;;;13.00;54.84;97232.38;5053172;28;20418;-50
2023/02/23 04:49:43;;;;;;;24.97;16.57;;;9.70;99.90;;;13.00;54.78;97229.72;5071087;28;20055;-51
2023/02/23 04:52:10;;;;;;;24.47;16.37;;;9.70;99.90;;;12.96;55.06;97228.44;5053554;28;20053;-51
2023/02/23 04:54:39;;;;;;;25.10;16.77;;;9.70;99.90;;;12.95;54.78;97224.09;5070627;28;20052;-51
2023/02/23 04:57:07;;;;;;;25.13;17.23;;;9.70;99.90;;;12.93;54.81;97232.31;5070093;28;20051;-46
2023/02/23 04:59:35;;;;;;;24.20;17.20;;;9.70;99.90;;;12.89;54.83;97225.69;5070756;28;20040;-51
2023/02/23 05:02:03;;;;;;;26.97;16.53;;;9.60;99.90;;;12.88;55.15;97228.53;5071022;28;20396;-46
2023/02/23 05:04:31;;;;;;;26.63;17.10;;;9.60;99.90;;;12.87;55.21;97230.38;5052564;28;20040;-47
2023/02/23 05:07:00;;;;;;;25.97;17.87;;;9.60;99.90;;;12.86;54.88;97226.03;5070926;28;20047;-51
2023/02/23 05:09:28;;;;;;;28.57;18.00;;;9.60;99.90;;;12.86;54.84;97222.56;5070811;28;20048;-48
2023/02/23 05:11:56;;;;;;;26.50;18.73;;;9.60;99.90;;;12.85;55.03;97231.56;5070865;28;20045;-48
2023/02/23 05:14:23;;;;;;;27.80;18.43;;;9.60;99.90;;;12.88;55.35;97217.84;5070319;28;20055;-49
2023/02/23 05:16:51;;;;;;;27.07;15.53;;;9.60;99.90;;;12.90;55.07;97223.84;5062744;28;20041;-48
2023/02/23 05:19:19;;;;;;;23.23;14.50;;;9.60;99.90;;;12.90;55.09;97226.50;5070839;28;20495;-48
2023/02/23 05:21:46;;;;;;;23.27;15.17;;;9.60;99.90;;;12.88;55.14;97221.34;5070701;28;20055;-49
2023/02/23 05:24:15;;;;;;;23.80;15.07;;;9.60;99.90;;;12.87;55.22;97226.88;5070433;28;20051;-52
2023/02/23 05:26:43;;;;;;;24.10;16.40;;;9.60;99.90;;;12.88;55.41;97226.69;5070382;28;20049;-51
2023/02/23 05:29:12;;;;;;;19.57;14.50;;;9.70;99.90;;;12.93;55.24;97220.78;5052076;28;20066;-46
2023/02/23 05:31:39;;;;;;;20.33;14.53;;;9.70;99.90;;;12.95;55.07;97232.09;5052809;28;20036;-46
2023/02/23 05:34:07;;;;;;;22.73;14.83;;;9.70;99.90;;;12.97;55.08;97227.44;5070393;28;20048;-48
2023/02/23 05:36:35;;;;;;;22.37;13.97;;;9.70;99.90;;;12.98;55.27;97235.22;5070280;28;20404;-50
2023/02/23 05:39:03;;;;;;;23.33;14.40;;;9.80;99.90;;;12.96;55.23;97231.09;5052946;28;20055;-51
2023/02/23 05:41:31;;;;;;;21.30;13.73;;;9.70;99.90;;;12.97;55.12;97230.09;5060850;28;20547;-51
2023/02/23 05:43:58;;;;;;;24.20;14.87;;;9.70;99.90;;;12.96;55.10;97236.44;5070279;28;20032;-52
2023/02/23 05:46:26;;;;;;;22.80;14.60;;;9.70;99.90;;;12.97;55.10;97235.44;5070534;28;20048;-47
2023/02/23 05:49:00;;;;;;;21.63;13.47;;;9.80;99.90;;;12.98;55.19;97237.91;5060864;28;20045;-46
2023/02/23 05:51:30;;;;;;;22.15;13.60;;;9.70;99.90;;;12.93;55.33;97236.81;5070109;28;20060;-51
2023/02/23 05:53:58;;;;;;;19.50;14.30;;;9.60;99.90;;;12.88;55.45;97231.22;5070134;28;20037;-47
2023/02/23 05:56:27;;;;;;;20.43;14.23;;;9.60;99.90;;;12.83;55.77;97228.25;5070351;28;20044;-50
2023/02/23 05:58:57;;;;;;;24.13;14.53;;;9.60;99.90;;;12.84;55.72;97232.59;5062389;28;20040;-48
2023/02/23 06:01:26;;;;;;;26.37;15.13;;;9.50;99.90;;;12.86;55.48;97227.91;5070218;28;20420;-51
2023/02/23 06:03:54;;;;;;;23.43;14.90;;;9.60;99.90;;;12.87;55.26;97226.88;5061932;28;20064;-48
2023/02/23 06:06:24;;;;;;;23.30;17.03;;;9.60;99.90;;;12.86;55.35;97233.25;5070188;28;20052;-48
2023/02/23 06:08:52;;;;;;;23.57;16.17;;;9.60;99.90;;;12.84;55.50;97235.25;5071974;28;20032;-50
2023/02/23 06:11:20;;;;;;;23.67;16.93;;;9.60;99.90;;;12.80;55.35;97232.13;5073707;28;20052;-48
2023/02/23 06:13:48;;;;;;;24.10;15.80;;;9.50;99.90;;;12.80;55.42;97240.16;5073560;28;20055;-51
2023/02/23 06:16:16;;;;;;;23.50;15.23;;;9.50;99.90;;;12.78;55.49;97245.66;5074004;28;20037;-48
2023/02/23 06:18:44;;;;;;;22.63;13.97;;;9.50;99.90;;;12.75;55.57;97237.19;5055843;28;20063;-49
2023/02/23 06:21:11;;;;;;;21.63;14.57;;;9.50;99.90;;;12.74;55.86;97243.56;5064254;28;20048;-51
2023/02/23 06:23:39;;;;;;;34.10;22.33;;;9.50;99.90;;;12.70;55.79;97240.44;5073805;28;20040;-50
2023/02/23 06:26:07;;;;;;;28.40;18.40;;;9.40;99.90;;;12.69;56.10;97244.09;5073336;28;20055;-51
2023/02/23 06:28:35;;;;;;;26.63;14.97;;;9.50;99.90;;;12.69;55.94;97243.28;5055948;28;20048;-51
2023/02/23 06:31:03;;;;;;;25.67;18.23;;;9.40;99.90;;;12.68;56.30;97250.47;5073679;28;20055;-51
2023/02/23 06:33:30;;;;;;;19.57;13.43;;;9.50;99.90;;;12.70;56.25;97247.63;5073463;28;20037;-52
2023/02/23 06:35:58;;;;;;;18.83;13.67;;;9.50;99.90;;;12.72;56.17;97246.41;5063383;28;20053;-50
2023/02/23 06:38:26;;;;;;;21.93;13.43;;;9.50;99.90;;;12.71;56.16;97250.06;5073331;28;20498;-51
2023/02/23 06:40:54;;;;;;;17.70;13.27;;;9.50;99.90;;;12.70;56.30;97256.44;5073480;28;20040;-51
2023/02/23 06:43:21;;;;;;;21.40;14.63;;;9.50;99.90;;;12.73;56.34;97257.91;5073310;28;20044;-49
2023/02/23 06:45:50;;;;;;;22.60;13.87;;;9.50;99.90;;;12.76;56.10;97252.22;5073009;28;20138;-46
2023/02/23 06:48:17;;;;;;;17.00;12.03;;;9.50;99.90;;;12.75;56.24;97262.06;5073308;28;20048;-48
2023/02/23 06:50:45;;;;;;;18.10;13.33;;;9.50;99.90;;;12.73;56.42;97265.94;5072725;28;20044;-48
2023/02/23 06:53:12;;;;;;;20.57;13.03;;;9.50;99.90;;;12.71;56.35;97268.78;5063074;28;20067;-51
2023/02/23 06:55:40;;;;;;;18.60;11.70;;;9.40;99.90;;;12.67;56.48;97267.50;5072697;28;20040;-50
2023/02/23 06:58:07;;;;;;;22.20;14.60;;;9.40;99.90;;;12.70;56.54;97271.66;5055349;28;20052;-50
2023/02/23 07:00:36;;;;;;;19.67;12.53;;;9.40;99.90;;;12.69;56.49;97270.81;5073022;28;20435;-48
2023/02/23 07:03:03;;;;;;;18.43;11.40;;;9.50;99.90;;;12.71;56.30;97275.97;5073078;28;20447;-52
2023/02/23 07:05:31;;;;;;;19.43;11.13;;;9.40;99.90;;;12.70;56.48;97277.81;5072833;28;20049;-50
2023/02/23 07:07:59;;;;;;;18.47;12.27;;;9.50;99.90;;;12.72;56.55;97280.31;5073021;28;20048;-50
2023/02/23 07:10:26;;;;;;;21.30;12.93;;;9.50;99.90;;;12.71;56.68;97278.63;5072968;28;20531;-48
2023/02/23 07:12:54;;;;;;;18.90;12.57;;;9.50;99.90;;;12.73;56.61;97282.78;5072760;28;20052;-47
2023/02/23 07:15:21;;;;;;;17.27;12.50;;;9.50;99.90;;;12.74;56.67;97286.28;5072267;28;20051;-47
2023/02/23 07:17:51;;;;;;;19.03;12.73;;;9.50;99.90;;;12.74;56.59;97288.97;5050135;28;20519;-50
2023/02/23 07:20:19;;;;;;;15.57;10.13;;;9.50;99.90;;;12.78;56.48;97290.25;5071724;28;20051;-51
2023/02/23 07:22:46;;;;;;;21.53;11.53;;;9.50;99.90;;;12.84;56.48;97291.38;5072744;28;20048;-49
2023/02/23 07:25:14;;;;;;;15.90;11.03;;;9.60;99.90;;;12.88;56.38;97295.31;5072855;28;20051;-51
2023/02/23 07:27:43;;;;;;;19.03;11.73;;;9.60;99.90;;;12.88;56.47;97295.31;5072351;28;20048;-50
2023/02/23 07:30:12;;;;;;;18.63;11.97;;;9.60;99.90;;;12.87;56.20;97299.84;5054692;28;20521;-50
2023/02/23 07:32:40;;;;;;;15.37;10.23;;;9.70;99.90;;;12.92;56.39;97300.09;5072357;28;20052;-52
2023/02/23 07:35:08;;;;;;;16.10;10.40;;;9.70;99.90;;;12.93;56.43;97301.78;5071912;28;20424;-52
2023/02/23 07:37:36;;;;;;;20.23;10.33;;;9.70;99.90;;;12.96;56.48;97303.25;5072528;28;20037;-49
2023/02/23 07:40:04;;;;;;;14.17;9.03;;;9.70;99.90;;;12.96;56.85;97304.06;5072325;28;20040;-52
2023/02/23 07:42:32;;;;;;;14.87;9.13;;;9.80;99.90;;;13.00;56.73;97308.03;5072080;28;20411;-51
2023/02/23 07:44:59;;;;;;;14.60;8.80;;;9.80;99.90;;;13.03;56.36;97300.66;5063679;28;20041;-50
2023/02/23 07:47:30;;;;;;;13.27;9.43;;;9.80;99.90;;;13.05;56.47;97301.31;5054317;28;20515;-49
2023/02/23 07:49:59;;;;;;;15.63;8.47;;;9.80;99.90;;;13.10;56.28;97305.06;5054321;28;20519;-49
2023/02/23 07:52:27;;;;;;;12.93;8.70;;;9.80;99.90;;;13.11;56.22;97301.38;5071935;28;20539;-47
2023/02/23 07:54:55;;;;;;;11.93;7.57;;;9.90;99.90;;;13.15;56.24;97307.19;5070075;28;20048;-49
2023/02/23 07:57:23;;;;;;;12.07;8.67;;;9.90;99.90;;;13.18;56.11;97307.66;5071665;28;20040;-53
2023/02/23 07:59:51;;;;;;;12.33;7.70;;;10.00;99.90;;;13.22;56.23;97310.75;5071746;28;20040;-50
2023/02/23 08:02:19;;;;;;;15.23;8.43;;;10.00;99.90;;;13.23;56.18;97312.44;5071512;28;20040;-49
2023/02/23 08:04:47;;;;;;;12.10;7.27;;;10.00;99.90;;;13.27;56.09;97312.91;5071413;28;20416;-47
2023/02/23 08:07:15;;;;;;;12.93;7.53;;;10.10;99.90;;;13.30;56.14;97308.03;5070488;28;20048;-48
2023/02/23 08:09:42;;;;;;;13.30;8.50;;;10.10;99.90;;;13.32;55.99;97313.22;5070345;28;20441;-48
2023/02/23 08:12:10;;;;;;;11.30;7.60;;;10.10;99.90;;;13.33;55.98;97304.97;5071593;28;20071;-51
2023/02/23 08:14:37;;;;;;;12.67;7.47;;;10.10;99.90;;;13.34;55.96;97311.19;5071191;28;20535;-50
2023/02/23 08:17:05;;;;;;;11.83;6.73;;;10.10;99.90;;;13.41;55.94;97319.25;5071438;28;20416;-50
2023/02/23 08:19:33;;;;;;;10.00;7.23;;;10.20;99.90;;;13.43;55.99;97307.34;5071545;28;20040;-52
2023/02/23 08:22:00;;;;;;;12.17;7.37;;;10.20;99.90;;;13.42;55.89;97313.75;5070964;28;20047;-47
2023/02/23 08:24:29;;;;;;;11.73;6.57;;;10.20;99.90;;;13.44;55.86;97311.69;5071161;28;20055;-49
2023/02/23 08:26:58;;;;;;;11.00;7.73;;;10.30;99.90;;;13.45;55.82;97316.03;5053711;28;20041;-47
2023/02/23 08:29:25;;;;;;;12.67;7.17;;;10.30;99.90;;;13.47;55.72;97315.84;5071227;28;20052;-50
2023/02/23 08:31:54;;;;;;;13.17;7.77;;;10.30;99.90;;;13.50;55.53;97310.94;5071089;28;20051;-51
2023/02/23 08:34:23;;;;;;;11.67;7.20;;;10.30;99.90;;;13.53;55.66;97310.59;5070779;28;20040;-47
2023/02/23 08:36:51;;;;;;;13.73;8.30;;;10.30;99.90;;;13.56;55.73;97312.03;5071046;28;20049;-53
2023/02/23 08:39:20;;;;;;;10.67;7.63;;;10.30;99.90;;;13.59;55.75;97317.03;5070947;28;20044;-50
2023/02/23 08:41:47;;;;;;;8.60;6.30;;;10.40;99.90;;;13.58;55.80;97310.00;5071082;28;20344;-48
2023/02/23 08:44:15;;;;;;;10.73;6.60;;;10.40;99.90;;;13.62;55.60;97322.00;5070835;28;20036;-51
2023/02/23 08:46:44;;;;;;;13.57;7.67;;;10.40;99.90;;;13.64;55.78;97319.94;5071152;28;20071;-49
2023/02/23 08:49:11;;;;;;;8.40;6.50;;;10.40;99.90;;;13.67;55.71;97316.09;5052729;28;20056;-50
2023/02/23 08:51:40;;;;;;;9.10;6.80;;;10.50;99.90;;;13.69;55.41;97320.22;5070871;28;20056;-48
2023/02/23 08:54:13;;;;;;;9.77;6.40;;;10.50;99.90;;;13.64;55.42;97322.63;5070996;28;20049;-49
2023/02/23 08:56:41;;;;;;;12.32;6.82;;;10.40;99.90;;;13.67;55.66;97324.94;5070915;28;20044;-51
2023/02/23 08:59:11;;;;;;;13.80;8.00;;;10.50;99.90;;;13.70;55.56;97323.72;5070726;28;20040;-49
2023/02/23 09:01:39;;;;;;;11.97;8.17;;;10.50;99.90;;;13.67;55.61;97327.63;5070760;28;20059;-48
2023/02/23 09:04:07;;;;;;;10.00;7.17;;;10.50;99.90;;;13.64;55.81;97327.97;5052943;28;20049;-46
2023/02/23 09:06:36;;;;;;;10.40;7.17;;;10.40;99.90;;;13.66;55.92;97333.97;5070577;28;20051;-48
2023/02/23 09:09:04;;;;;;;13.67;7.40;;;10.40;99.90;;;13.73;55.90;97331.38;5070758;28;20052;-49
2023/02/23 09:11:32;;;;;;;9.77;6.60;;;10.50;99.90;;;13.84;55.92;97330.88;5053201;28;20048;-52
2023/02/23 09:13:59;;;;;;;11.20;6.50;;;10.70;99.90;;;13.93;55.63;97327.06;5070394;28;20040;-47
2023/02/23 09:16:27;;;;;;;9.27;6.53;;;10.70;99.90;;;13.98;55.43;97331.84;5054243;28;20049;-52
2023/02/23 09:18:54;;;;;;;10.53;6.27;;;10.80;99.90;;;14.09;55.31;97330.50;5056229;28;20393;-51
2023/02/23 09:21:23;;;;;;;9.30;6.07;;;10.90;99.90;;;14.14;55.23;97328.91;5061636;28;20058;-48
2023/02/23 09:23:54;;;;;;;8.27;5.83;;;11.00;99.90;;;14.25;55.06;97340.13;5060529;28;20435;-51
2023/02/23 09:26:25;;;;;;;10.87;6.00;;;11.10;99.90;;;14.35;55.01;97332.59;5062092;28;20405;-46
2023/02/23 09:28:52;;;;;;;9.80;5.17;;;11.20;99.90;;;14.44;54.80;97335.97;5063166;28;20052;-47
2023/02/23 09:31:22;;;;;;;8.60;5.78;;;11.30;99.90;;;14.53;54.77;97340.16;5062936;28;20504;-50
2023/02/23 09:33:51;;;;;;;7.93;5.30;;;11.40;99.90;;;14.61;54.64;97333.88;5063093;28;20504;-51
2023/02/23 09:36:23;;;;;;;10.88;4.70;;;11.40;99.90;;;14.66;54.33;97328.78;5045986;28;20051;-49
2023/02/23 09:38:55;;;;;;;7.93;5.20;;;11.40;99.90;;;14.72;54.18;97330.66;5063723;28;20044;-50
2023/02/23 09:41:52;;;;;;;7.33;4.87;;;11.50;99.90;;;14.75;54.08;97322.22;5047800;28;20118;-47
2023/02/23 09:45:00;;;;;;;5.90;4.05;;;11.60;99.90;;;14.75;54.14;97324.91;5032333;28;20053;-48
2023/02/23 09:47:46;;;;;;;5.97;3.90;;;11.60;99.90;;;14.77;54.08;97322.84;5067171;28;20040;-48
2023/02/23 09:50:27;;;;;;;9.77;5.05;;;11.60;99.90;;;14.80;54.24;97325.16;5051253;28;20424;-49
2023/02/23 09:53:05;;;;;;;8.73;5.13;;;11.70;99.90;;;14.86;53.99;97315.50;5049202;28;20045;-48
2023/02/23 09:55:34;;;;;;;6.40;3.95;;;11.70;99.90;;;14.90;54.03;97320.25;5073879;28;20166;-50
2023/02/23 09:58:24;;;;;;;10.90;4.15;;;11.80;99.90;;;14.96;53.96;97324.84;5074131;28;20048;-49
2023/02/23 10:01:42;;;;;;;5.97;3.42;;;11.80;99.90;;;15.02;53.93;97331.25;5074245;28;20045;-46
2023/02/23 10:04:28;;;;;;;5.55;3.15;;;11.90;99.90;;;15.09;53.40;97324.09;5048695;28;20052;-50
2023/02/23 10:07:03;;;;;;;5.93;3.90;;;11.90;99.90;;;15.13;53.18;97327.22;5074003;28;20048;-47
2023/02/23 10:10:20;;;;;;;5.03;2.97;;;11.90;99.90;;;15.14;53.39;97328.84;5039521;28;20053;-49
2023/02/23 10:13:32;;;;;;;4.35;2.90;;;12.00;99.90;;;15.16;53.16;97332.19;5071354;28;20064;-48
2023/02/23 10:16:24;;;;;;;5.90;2.90;;;12.00;99.90;;;15.18;52.61;97330.13;5073595;28;20056;-49
2023/02/23 10:19:04;;;;;;;4.32;2.85;;;12.00;99.90;;;15.17;52.59;97328.47;5069673;28;20040;-51
2023/02/23 10:21:38;;;;;;;7.30;3.67;;;12.00;99.90;;;15.11;52.50;97324.72;5039645;28;20048;-48
2023/02/23 10:24:19;;;;;;;5.33;2.90;;;11.90;99.90;;;15.08;52.50;97324.28;5073497;28;20045;-50
2023/02/23 10:27:05;;;;;;;5.88;3.83;;;11.90;99.90;;;15.09;52.44;97328.63;5056776;28;20040;-47
2023/02/23 10:29:53;;;;;;;6.68;2.53;;;11.90;99.90;;;15.08;52.07;97322.47;5042551;28;20071;-51
2023/02/23 10:32:47;;;;;;;4.32;2.67;;;11.90;99.90;;;15.07;51.96;97322.66;5050127;28;20052;-50
2023/02/23 10:35:20;;;;;;;4.55;2.47;;;11.90;99.90;;;15.13;51.69;97321.84;5029400;28;20060;-50
2023/02/23 10:37:53;;;;;;;9.37;2.70;;;12.00;99.90;;;15.22;51.51;97326.03;5067667;28;20063;-48
2023/02/23 10:40:32;;;;;;;6.65;2.90;;;12.10;99.90;;;15.35;51.50;97325.25;5049950;28;20045;-51
2023/02/23 10:43:01;;;;;;;4.85;2.47;;;12.20;99.90;;;15.47;50.95;97328.19;5050175;28;20049;-48
2023/02/23 10:45:38;;;;;;;3.15;2.65;;;12.30;99.90;;;15.60;50.73;97327.44;5047631;28;20056;-51
2023/02/23 10:48:17;;;;;;;3.92;2.40;;;12.50;99.90;;;15.69;50.66;97331.59;5052416;28;20041;-53
2023/02/23 10:50:48;;;;;;;6.57;3.60;;;12.60;99.80;;;15.76;50.69;97324.44;5035837;28;20068;-46
2023/02/23 10:53:25;;;;;;;6.65;4.25;;;12.70;99.80;;;15.84;50.72;97331.44;5025669;28;20479;-51
2023/02/23 10:56:12;;;;;;;5.40;2.83;;;12.70;99.20;;;15.86;50.62;97332.09;5065425;28;20044;-51
2023/02/23 10:58:50;;;;;;;4.90;2.83;;;12.80;96.30;;;15.90;50.50;97326.09;5049965;28;20158;-50
2023/02/23 11:01:44;;;;;;;5.95;3.63;;;12.80;98.00;;;15.85;50.61;97325.88;5050399;28;20048;-48
2023/02/23 11:04:33;;;;;;;7.78;4.65;;;12.80;96.00;;;15.78;51.26;97327.75;5051765;28;20048;-50
2023/02/23 11:07:19;;;;;;;7.43;4.97;;;12.60;99.90;;;15.68;51.49;97325.41;5050917;28;20094;-52
2023/02/23 11:09:47;;;;;;;8.18;5.25;;;12.50;99.90;;;15.64;51.68;97326.00;5049778;28;20045;-49
2023/02/23 11:12:42;;;;;;;6.93;4.32;;;12.40;99.90;;;15.51;51.52;97332.97;5066974;28;20471;-50
2023/02/23 11:15:42;;;;;;;7.82;5.40;;;12.30;99.90;;;15.47;51.78;97333.56;5064693;28;20496;-46
2023/02/23 11:18:21;;;;;;;6.10;4.45;;;12.30;99.90;;;15.46;51.82;97326.53;5038303;28;20055;-46
2023/02/23 11:20:50;;;;;;;8.40;5.47;;;12.20;99.90;;;15.42;51.82;97325.28;5048533;28;20041;-51
2023/02/23 11:23:28;;;;;;;9.85;4.85;;;12.20;99.90;;;15.43;52.14;97309.00;5052495;28;20048;-50
2023/02/23 11:26:00;;;;;;;8.85;5.68;;;12.20;99.90;;;15.44;52.28;97316.00;5035175;28;20106;-49
2023/02/23 11:28:39;;;;;;;7.28;5.20;;;12.20;99.90;;;15.53;52.50;97314.00;5058292;28;20044;-47
2023/02/23 11:31:20;;;;;;;7.38;5.30;;;12.40;99.90;;;15.59;52.20;97305.13;5052837;28;20057;-50
2023/02/23 11:33:52;;;;;;;7.03;5.10;;;12.50;99.90;;;15.60;52.27;97312.16;5034735;28;20037;-48
2023/02/23 11:36:35;;;;;;;7.47;5.55;;;12.50;99.90;;;15.63;52.06;97306.38;5047147;28;20462;-51
2023/02/23 11:39:16;;;;;;;8.27;4.78;;;12.50;99.20;;;15.66;51.96;97297.91;5072360;28;20036;-50
2023/02/23 11:41:44;;;;;;;6.38;4.25;;;12.50;98.70;;;15.67;51.70;97299.59;5072326;28;20040;-50
2023/02/23 11:44:21;;;;;;;6.22;4.10;;;12.60;97.70;;;15.70;51.93;97296.50;5037828;28;20051;-48
2023/02/23 11:46:50;;;;;;;6.88;4.35;;;12.60;97.20;;;15.73;51.95;97292.63;5054160;28;20068;-46
2023/02/23 11:49:27;;;;;;;7.78;4.95;;;12.60;96.70;;;15.70;51.88;97296.50;5072130;28;20032;-49
2023/02/23 11:51:58;;;;;;;6.53;4.82;;;12.60;96.90;;;15.77;52.09;97298.41;5055038;28;20040;-48
2023/02/23 11:54:33;;;;;;;7.45;4.85;;;12.70;96.70;;;15.81;51.61;97292.41;5071253;28;20056;-46
2023/02/23 11:57:01;;;;;;;8.35;4.70;;;12.80;95.70;;;15.85;51.85;97298.22;5054342;28;20417;-49